createdAt,value
2023-01-23T00:04:51.630Z,86.60
2023-01-23T00:09:54.523Z,86.82
2023-01-23T00:15:03.744Z,86.63
2023-01-23T00:20:07.279Z,86.43
2023-01-23T00:25:09.109Z,86.38
2023-01-23T00:30:11.408Z,86.37
2023-01-23T00:35:13.151Z,86.66
2023-01-23T00:40:15.068Z,86.34
2023-01-23T00:45:16.750Z,86.37
2023-01-23T00:50:18.998Z,86.79
2023-01-23T00:55:20.978Z,86.70
2023-01-23T01:00:22.875Z,86.35
2023-01-23T01:05:24.692Z,86.21
2023-01-23T01:10:30.338Z,86.18
2023-01-23T01:15:32.851Z,86.74
2023-01-23T01:20:34.693Z,86.82
2023-01-23T01:25:36.778Z,86.48
2023-01-23T01:30:38.602Z,87.01
2023-01-23T01:35:41.248Z,86.93
2023-01-23T01:40:43.165Z,86.51
2023-01-23T01:46:23.456Z,86.88
2023-01-23T01:51:28.417Z,86.99
2023-01-23T01:56:35.965Z,87.06
2023-01-23T02:01:39.316Z,86.95
2023-01-23T02:06:41.878Z,86.79
2023-01-23T02:11:43.784Z,87.09
2023-01-23T02:16:50.542Z,86.96
2023-01-23T02:21:58.853Z,86.75
2023-01-23T02:27:00.891Z,86.81
2023-01-23T02:32:02.881Z,86.83
2023-01-23T02:37:06.611Z,86.64
2023-01-23T02:42:09.700Z,87.23
2023-01-23T02:47:23.102Z,86.91
2023-01-23T02:52:25.249Z,87.24
2023-01-23T02:57:27.033Z,87.43
2023-01-23T03:02:28.972Z,86.82
2023-01-23T03:07:30.747Z,87.06
2023-01-23T03:12:32.541Z,87.07
2023-01-23T03:17:34.264Z,87.19
2023-01-23T03:22:36.101Z,86.98
2023-01-23T03:27:37.864Z,87.22
2023-01-23T03:32:40.878Z,87.15
2023-01-23T03:37:44.104Z,86.85
2023-01-23T03:42:46.115Z,86.97
2023-01-23T03:47:49.276Z,87.08
2023-01-23T03:52:51.206Z,87.15
2023-01-23T03:57:53.483Z,86.95
2023-01-23T04:03:06.140Z,87.13
2023-01-23T04:08:08.200Z,87.30
2023-01-23T04:13:10.260Z,87.09
2023-01-23T04:18:13.247Z,87.02
2023-01-23T04:23:15.046Z,87.07
2023-01-23T04:28:17.994Z,87.04
2023-01-23T04:33:20.594Z,87.03
2023-01-23T04:38:25.090Z,87.04
2023-01-23T04:43:27.272Z,86.84
2023-01-23T04:48:29.212Z,87.18
2023-01-23T04:53:30.964Z,87.22
2023-01-23T04:58:35.184Z,87.16
2023-01-23T05:03:38.074Z,87.09
2023-01-23T05:08:39.864Z,86.91
2023-01-23T05:13:47.779Z,87.08
2023-01-23T05:18:49.827Z,86.99
2023-01-23T05:23:51.949Z,87.10
2023-01-23T05:28:55.441Z,87.14
2023-01-23T05:33:57.190Z,87.22
2023-01-23T05:38:59.007Z,87.32
2023-01-23T05:44:02.459Z,87.30
2023-01-23T05:49:11.353Z,87.24
2023-01-23T05:54:13.183Z,87.47
2023-01-23T05:59:18.186Z,87.12
2023-01-23T06:04:27.938Z,87.34
2023-01-23T06:09:48.291Z,87.13
2023-01-23T06:14:52.935Z,87.44
2023-01-23T06:19:54.749Z,87.35
2023-01-23T06:24:57.260Z,87.46
2023-01-23T06:29:58.982Z,87.20
2023-01-23T06:35:02.317Z,87.43
2023-01-23T06:40:08.194Z,87.18
2023-01-23T06:45:11.260Z,87.48
2023-01-23T06:50:13.262Z,87.26
2023-01-23T06:55:15.138Z,87.39
2023-01-23T07:00:19.097Z,87.75
2023-01-23T07:05:21.624Z,87.70
2023-01-23T07:10:24.388Z,87.54
2023-01-23T07:15:26.282Z,87.96
2023-01-23T07:20:28.840Z,88.10
2023-01-23T07:25:32.610Z,87.52
2023-01-23T07:30:40.951Z,87.88
2023-01-23T07:35:42.724Z,88.23
2023-01-23T07:40:45.432Z,88.20
2023-01-23T07:45:47.163Z,87.96
2023-01-23T07:50:48.916Z,87.87
2023-01-23T07:55:50.672Z,87.72
2023-01-23T08:00:52.376Z,87.73
2023-01-23T08:05:54.733Z,87.72
2023-01-23T08:10:56.572Z,87.35
2023-01-23T08:15:59.170Z,86.98
2023-01-23T08:21:03.419Z,86.75
2023-01-23T08:26:08.296Z,86.72
2023-01-23T08:31:11.884Z,86.96
2023-01-23T08:36:14.177Z,86.82
2023-01-23T08:41:16.181Z,86.46
2023-01-23T08:46:17.905Z,86.57
2023-01-23T08:51:19.681Z,85.89
2023-01-23T08:56:23.516Z,86.34
2023-01-23T09:01:27.002Z,86.37
2023-01-23T09:06:28.723Z,86.44
2023-01-23T09:11:30.536Z,86.47
2023-01-23T09:16:32.304Z,86.00
2023-01-23T09:21:34.460Z,86.10
2023-01-23T09:26:36.187Z,85.82
2023-01-23T09:31:38.243Z,85.59
2023-01-23T09:36:43.391Z,85.38
2023-01-23T09:41:46.859Z,85.58
2023-01-23T09:47:04.832Z,85.58
2023-01-23T09:52:23.997Z,85.48
2023-01-23T09:57:32.923Z,84.58
2023-01-23T10:02:34.639Z,84.24
2023-01-23T10:07:49.891Z,84.03
2023-01-23T10:13:09.293Z,83.37
2023-01-23T10:18:18.328Z,83.04
2023-01-23T10:23:32.381Z,82.97
2023-01-23T10:28:38.891Z,82.28
2023-01-23T10:33:50.261Z,82.14
2023-01-23T10:39:06.945Z,82.02
2023-01-23T10:44:20.107Z,81.71
2023-01-23T10:49:37.681Z,81.72
2023-01-23T10:54:46.998Z,81.35
2023-01-23T10:59:56.021Z,81.36
2023-01-23T11:04:59.303Z,81.84
2023-01-23T11:10:16.462Z,81.91
2023-01-23T11:15:33.280Z,82.75
2023-01-23T11:20:39.281Z,82.74
2023-01-23T11:25:46.745Z,83.30
2023-01-23T11:31:00.913Z,83.31
2023-01-23T11:36:18.865Z,83.53
2023-01-23T11:41:25.049Z,83.91
2023-01-23T11:46:51.923Z,83.95
2023-01-23T11:52:13.686Z,84.23
2023-01-23T11:57:29.836Z,84.30
2023-01-23T12:03:02.738Z,84.42
2023-01-23T12:08:32.798Z,84.48
2023-01-23T12:14:00.463Z,84.32
2023-01-23T12:19:21.146Z,84.12
2023-01-23T12:24:40.519Z,83.92
2023-01-23T12:30:12.704Z,83.93
2023-01-23T12:35:33.427Z,83.55
2023-01-23T12:40:50.715Z,83.23
2023-01-23T12:46:08.955Z,83.22
2023-01-23T12:51:18.999Z,82.59
2023-01-23T12:56:25.908Z,82.53
2023-01-23T13:01:50.744Z,82.03
2023-01-23T13:07:18.974Z,81.80
2023-01-23T13:12:26.267Z,81.57
2023-01-23T13:17:35.580Z,81.62
2023-01-23T13:22:38.601Z,81.76
2023-01-23T13:27:51.283Z,81.68
2023-01-23T13:33:00.844Z,81.95
2023-01-23T13:38:02.572Z,81.96
2023-01-23T13:43:44.373Z,82.43
2023-01-23T14:21:41.104Z,84.06
2023-01-23T14:26:49.830Z,84.07
2023-01-23T14:31:51.912Z,84.34
2023-01-23T14:37:05.718Z,84.54
2023-01-23T14:42:11.638Z,84.19
2023-01-23T14:47:28.233Z,84.81
2023-01-23T14:52:31.457Z,84.71
2023-01-23T14:57:33.401Z,84.88
2023-01-23T15:02:36.457Z,84.98
2023-01-23T15:07:56.156Z,85.10
2023-01-23T15:13:05.216Z,85.37
2023-01-23T15:18:23.150Z,85.35
2023-01-23T15:23:31.602Z,85.34
2023-01-23T15:28:53.933Z,85.58
2023-01-23T15:34:10.346Z,85.59
2023-01-23T15:39:19.917Z,85.97
2023-01-23T15:44:23.400Z,86.21
2023-01-23T15:49:26.516Z,86.13
2023-01-23T15:54:37.075Z,86.59
2023-01-23T15:59:38.826Z,86.47
2023-01-23T16:04:40.487Z,86.68
2023-01-23T16:09:45.591Z,86.98
2023-01-23T16:14:48.351Z,86.78
2023-01-23T16:19:50.735Z,86.77
2023-01-23T16:24:53.466Z,86.71
2023-01-23T16:29:55.604Z,86.87
2023-01-23T16:34:57.405Z,87.12
2023-01-23T16:39:59.114Z,87.17
2023-01-23T16:45:00.782Z,87.17
2023-01-23T16:50:02.541Z,87.53
2023-01-23T16:55:12.059Z,87.30
2023-01-23T17:00:33.479Z,87.35
2023-01-23T17:05:37.006Z,87.45
2023-01-23T17:10:46.118Z,87.77
2023-01-23T17:15:51.388Z,87.65
2023-01-23T17:20:57.069Z,87.89
2023-01-23T17:26:01.116Z,88.16
2023-01-23T17:31:04.992Z,88.18
2023-01-23T17:36:07.742Z,87.95
2023-01-23T17:41:16.879Z,88.31
2023-01-23T17:46:31.394Z,88.32
2023-01-23T17:51:33.741Z,88.23
2023-01-23T17:56:35.661Z,88.39
2023-01-23T18:01:37.668Z,88.29
2023-01-23T18:06:39.332Z,88.23
2023-01-23T18:11:49.709Z,88.61
2023-01-23T18:16:53.148Z,88.68
2023-01-23T18:21:57.465Z,88.77
2023-01-23T18:27:00.708Z,88.62
2023-01-23T18:32:02.562Z,88.90
2023-01-23T18:37:19.176Z,88.62
2023-01-23T18:42:59.457Z,88.75
2023-01-23T18:48:01.706Z,88.81
2023-01-23T18:53:15.800Z,88.79
2023-01-23T18:58:47.123Z,88.70
2023-01-23T19:03:48.922Z,88.70
2023-01-23T19:08:52.448Z,88.84
2023-01-23T19:14:19.216Z,88.73
2023-01-23T19:19:40.094Z,88.83
2023-01-23T19:24:42.306Z,88.90
2023-01-23T19:29:44.410Z,88.90
2023-01-23T19:34:46.141Z,88.92
2023-01-23T19:39:47.868Z,89.09
2023-01-23T19:44:49.645Z,88.82
2023-01-23T19:49:51.328Z,88.84
2023-01-23T19:54:53.169Z,89.17
2023-01-23T19:59:55.039Z,89.30
2023-01-23T20:04:57.878Z,89.20
2023-01-23T20:09:59.575Z,89.33
2023-01-23T20:15:01.294Z,89.31
2023-01-23T20:20:05.184Z,88.97
2023-01-23T20:25:10.554Z,88.89
2023-01-23T20:30:18.300Z,88.86
2023-01-23T20:35:20.078Z,88.90
2023-01-23T20:40:21.751Z,88.91
2023-01-23T20:45:24.351Z,88.72
2023-01-23T20:50:26.367Z,88.74
2023-01-23T20:55:28.029Z,88.78
2023-01-23T21:00:29.719Z,88.49
2023-01-23T21:05:31.504Z,88.68
2023-01-23T21:10:33.228Z,88.61
2023-01-23T21:15:34.943Z,88.71
2023-01-23T21:20:39.240Z,88.62
2023-01-23T21:25:41.216Z,88.59
2023-01-23T21:30:43.244Z,88.80
2023-01-23T21:35:49.887Z,88.64
2023-01-23T21:40:53.936Z,88.78
2023-01-23T21:45:57.264Z,88.84
2023-01-23T21:51:16.109Z,88.71
2023-01-23T21:56:20.794Z,88.71
2023-01-23T22:01:42.128Z,88.64
2023-01-23T22:06:45.924Z,88.85
2023-01-23T22:11:48.951Z,89.02
2023-01-23T22:16:52.534Z,88.64
2023-01-23T22:21:55.172Z,89.04
2023-01-23T22:26:57.129Z,88.90
2023-01-23T22:31:59.637Z,89.01
2023-01-23T22:37:01.591Z,89.16
2023-01-23T22:42:03.389Z,89.17
2023-01-23T22:47:05.679Z,89.02
2023-01-23T22:52:08.615Z,89.11
2023-01-23T22:57:11.160Z,89.30
2023-01-23T23:02:12.854Z,89.18
2023-01-23T23:07:16.927Z,89.36
2023-01-23T23:12:18.615Z,89.07
2023-01-23T23:17:20.387Z,89.03
2023-01-23T23:22:22.367Z,89.13
2023-01-23T23:27:24.050Z,88.78
2023-01-23T23:32:25.805Z,88.84
2023-01-23T23:37:27.643Z,88.78
2023-01-23T23:42:29.367Z,88.58
2023-01-23T23:47:31.076Z,88.83
2023-01-23T23:52:36.939Z,88.60
2023-01-23T23:57:39.541Z,88.44
